createdAt,value
2019-03-31T00:02:51.796Z,1010.86
2019-03-31T00:07:51.790Z,1010.90
2019-03-31T00:12:51.686Z,1010.89
2019-03-31T00:17:51.725Z,1010.82
2019-03-31T00:22:51.678Z,1010.82
2019-03-31T00:27:51.733Z,1010.92
2019-03-31T00:32:51.817Z,1010.86
2019-03-31T00:37:51.108Z,1010.83
2019-03-31T00:42:51.715Z,1010.88
2019-03-31T00:47:51.760Z,1010.93
2019-03-31T00:52:51.115Z,1010.89
2019-03-31T00:57:50.874Z,1010.94
2019-03-31T01:02:50.696Z,1010.91
2019-03-31T01:07:50.702Z,1010.99
2019-03-31T01:12:50.708Z,1010.89
2019-03-31T01:17:51.734Z,1010.96
2019-03-31T01:22:50.913Z,1011.05
2019-03-31T01:27:50.795Z,1011.00
2019-03-31T01:32:50.019Z,1011.00
2019-03-31T01:37:50.720Z,1011.03
2019-03-31T01:42:49.961Z,1011.11
2019-03-31T01:47:48.691Z,1011.15
2019-03-31T01:52:47.697Z,1011.17
2019-03-31T01:57:46.770Z,1011.11
2019-03-31T02:02:45.706Z,1011.11
2019-03-31T02:07:45.081Z,1011.02
2019-03-31T02:12:44.681Z,1011.13
2019-03-31T02:17:44.725Z,1011.10
2019-03-31T02:22:44.751Z,1011.07
2019-03-31T02:27:44.717Z,1011.20
2019-03-31T02:32:44.834Z,1011.32
2019-03-31T02:37:44.722Z,1011.21
2019-03-31T02:42:43.760Z,1011.25
2019-03-31T02:47:43.834Z,1011.17
2019-03-31T02:52:43.780Z,1011.22
2019-03-31T02:57:44.743Z,1011.30
2019-03-31T03:02:43.710Z,1011.30
2019-03-31T03:07:42.826Z,1011.32
2019-03-31T03:12:43.737Z,1011.35
2019-03-31T03:17:42.718Z,1011.41
2019-03-31T03:22:41.727Z,1011.33
2019-03-31T03:27:41.154Z,1011.17
2019-03-31T03:33:11.002Z,1011.22
2019-03-31T03:37:39.803Z,1011.32
2019-03-31T03:42:39.053Z,1011.37
2019-03-31T03:47:38.770Z,1011.50
2019-03-31T03:52:39.891Z,1011.52
2019-03-31T03:57:39.750Z,1011.51
2019-03-31T04:02:39.763Z,1011.46
2019-03-31T04:07:39.742Z,1011.48
2019-03-31T04:12:39.744Z,1011.67
2019-03-31T04:17:38.729Z,1011.64
2019-03-31T04:22:38.746Z,1011.82
2019-03-31T04:27:38.790Z,1011.79
2019-03-31T04:32:39.189Z,1011.75
2019-03-31T04:37:38.759Z,1011.81
2019-03-31T04:42:38.243Z,1011.83
2019-03-31T04:47:37.757Z,1011.89
2019-03-31T04:52:37.718Z,1011.92
2019-03-31T04:57:37.776Z,1011.95
2019-03-31T05:02:37.796Z,1012.01
2019-03-31T05:07:37.724Z,1012.09
2019-03-31T05:17:36.062Z,1012.03
2019-03-31T05:22:35.164Z,1012.12
2019-03-31T05:27:35.770Z,1012.20
2019-03-31T05:32:35.895Z,1012.25
2019-03-31T05:37:49.918Z,1012.35
2019-03-31T05:42:35.769Z,1012.40
2019-03-31T05:47:35.773Z,1012.37
2019-03-31T05:52:35.819Z,1012.43
2019-03-31T05:57:34.798Z,1012.44
2019-03-31T06:02:34.997Z,1012.45
2019-03-31T06:07:34.981Z,1012.59
2019-03-31T06:12:33.759Z,1012.59
2019-03-31T06:17:33.844Z,1012.60
2019-03-31T06:22:32.828Z,1012.63
2019-03-31T06:27:31.935Z,1012.69
2019-03-31T06:32:31.776Z,1012.83
2019-03-31T06:37:31.953Z,1012.89
2019-03-31T06:42:32.732Z,1013.05
2019-03-31T06:47:32.790Z,1013.14
2019-03-31T06:52:32.003Z,1013.21
2019-03-31T06:57:31.813Z,1013.22
2019-03-31T07:02:31.059Z,1013.27
2019-03-31T07:07:30.961Z,1013.32
2019-03-31T07:12:29.826Z,1013.40
2019-03-31T07:17:29.778Z,1013.47
2019-03-31T07:22:28.962Z,1013.45
2019-03-31T07:27:27.963Z,1013.53
2019-03-31T07:32:27.825Z,1013.58
2019-03-31T07:37:28.070Z,1013.78
2019-03-31T07:42:27.832Z,1013.72
2019-03-31T07:47:28.805Z,1013.72
2019-03-31T07:52:29.190Z,1013.67
2019-03-31T07:57:28.904Z,1013.70
2019-03-31T08:02:28.839Z,1013.78
2019-03-31T08:07:29.038Z,1013.83
2019-03-31T08:12:29.229Z,1013.91
2019-03-31T08:17:28.039Z,1013.86
2019-03-31T08:22:27.272Z,1013.84
2019-03-31T08:27:26.061Z,1013.84
2019-03-31T08:32:28.387Z,1013.84
2019-03-31T08:37:25.108Z,1013.97
2019-03-31T08:42:24.062Z,1014.08
2019-03-31T08:47:23.246Z,1014.13
2019-03-31T08:52:22.319Z,1014.22
2019-03-31T08:57:22.283Z,1014.19
2019-03-31T09:02:22.102Z,1014.15
2019-03-31T09:07:21.470Z,1014.26
2019-03-31T09:12:21.163Z,1014.25
2019-03-31T09:17:20.057Z,1014.26
2019-03-31T09:22:19.528Z,1014.29
2019-03-31T09:27:20.121Z,1014.25
2019-03-31T09:32:19.271Z,1014.28
2019-03-31T09:37:19.210Z,1014.39
2019-03-31T09:42:19.068Z,1014.50
2019-03-31T09:47:19.075Z,1014.44
2019-03-31T09:52:18.121Z,1014.60
2019-03-31T09:57:18.148Z,1014.52
2019-03-31T10:02:18.087Z,1014.53
2019-03-31T10:07:18.082Z,1014.57
2019-03-31T10:12:18.147Z,1014.53
2019-03-31T10:17:18.279Z,1014.58
2019-03-31T10:22:18.163Z,1014.57
2019-03-31T10:27:17.202Z,1014.62
2019-03-31T10:32:16.404Z,1014.70
2019-03-31T10:37:16.068Z,1014.64
2019-03-31T10:42:15.292Z,1014.60
2019-03-31T10:47:15.226Z,1014.67
2019-03-31T10:52:15.611Z,1014.67
2019-03-31T10:57:16.126Z,1014.70
2019-03-31T11:02:16.262Z,1014.65
2019-03-31T11:07:16.144Z,1014.70
2019-03-31T11:12:16.277Z,1014.60
2019-03-31T11:17:16.102Z,1014.65
2019-03-31T11:22:15.118Z,1014.57
2019-03-31T11:27:14.062Z,1014.62
2019-03-31T11:32:15.070Z,1014.56
2019-03-31T11:37:16.095Z,1014.60
2019-03-31T11:42:15.098Z,1014.60
2019-03-31T11:47:15.084Z,1014.56
2019-03-31T11:52:15.096Z,1014.67
2019-03-31T11:57:17.367Z,1014.56
2019-03-31T12:02:26.306Z,1014.60
2019-03-31T12:07:26.749Z,1014.56
2019-03-31T12:12:13.072Z,1014.58
2019-03-31T12:17:13.163Z,1014.50
2019-03-31T12:22:13.035Z,1014.48
2019-03-31T12:27:13.072Z,1014.40
2019-03-31T12:32:13.079Z,1014.45
2019-03-31T12:37:12.539Z,1014.45
2019-03-31T12:42:12.165Z,1014.53
2019-03-31T12:47:13.221Z,1014.53
2019-03-31T12:52:13.095Z,1014.55
2019-03-31T12:57:14.092Z,1014.46
2019-03-31T13:02:15.061Z,1014.42
2019-03-31T13:07:15.170Z,1014.32
2019-03-31T13:12:15.091Z,1014.36
2019-03-31T13:17:15.204Z,1014.34
2019-03-31T13:22:14.419Z,1014.29
2019-03-31T13:27:13.120Z,1014.32
2019-03-31T13:32:12.444Z,1014.30
2019-03-31T13:37:11.091Z,1014.27
2019-03-31T13:42:10.489Z,1014.23
2019-03-31T13:47:10.196Z,1014.11
2019-03-31T13:52:10.173Z,1013.99
2019-03-31T13:57:10.823Z,1014.08
2019-03-31T14:02:11.086Z,1014.10
2019-03-31T14:07:11.054Z,1014.08
2019-03-31T14:12:11.066Z,1013.99
2019-03-31T14:17:12.118Z,1013.90
2019-03-31T14:22:12.041Z,1013.86
2019-03-31T14:27:11.070Z,1013.89
2019-03-31T14:32:10.263Z,1013.95
2019-03-31T14:37:10.187Z,1013.94
2019-03-31T14:42:09.315Z,1013.96
2019-03-31T14:47:08.432Z,1013.93
2019-03-31T14:52:08.157Z,1013.96
2019-03-31T14:57:08.059Z,1013.83
2019-03-31T15:02:07.131Z,1013.89
2019-03-31T15:07:07.061Z,1013.88
2019-03-31T15:12:08.047Z,1013.85
2019-03-31T15:17:08.111Z,1013.87
2019-03-31T15:27:06.128Z,1013.88
2019-03-31T15:32:05.640Z,1013.80
2019-03-31T15:37:05.152Z,1013.85
2019-03-31T15:42:05.102Z,1013.83
2019-03-31T15:47:05.050Z,1013.79
2019-03-31T15:52:04.109Z,1013.80
2019-03-31T15:57:04.124Z,1013.89
2019-03-31T16:02:04.090Z,1013.93
2019-03-31T16:07:03.416Z,1013.78
2019-03-31T16:12:03.081Z,1013.85
2019-03-31T16:17:03.089Z,1013.98
2019-03-31T16:22:03.208Z,1013.84
2019-03-31T16:27:03.145Z,1013.89
2019-03-31T16:32:02.144Z,1013.84
2019-03-31T16:37:01.367Z,1013.80
2019-03-31T16:42:01.097Z,1013.65
2019-03-31T16:47:00.377Z,1013.72
2019-03-31T16:52:01.107Z,1013.70
2019-03-31T16:57:00.450Z,1013.69
2019-03-31T17:02:00.131Z,1013.69
2019-03-31T17:07:00.217Z,1013.79
2019-03-31T17:12:00.169Z,1013.73
2019-03-31T17:17:00.100Z,1013.70
2019-03-31T17:21:59.901Z,1013.82
2019-03-31T17:27:00.125Z,1013.79
2019-03-31T17:31:59.129Z,1013.84
2019-03-31T17:36:59.736Z,1013.72
2019-03-31T17:41:59.124Z,1013.84
2019-03-31T17:46:59.046Z,1013.76
2019-03-31T17:52:01.176Z,1013.77
2019-03-31T17:56:58.332Z,1013.84
2019-03-31T18:01:57.392Z,1013.86
2019-03-31T18:06:56.636Z,1013.89
2019-03-31T18:11:56.079Z,1014.02
2019-03-31T18:16:56.068Z,1013.98
2019-03-31T18:21:57.237Z,1014.08
2019-03-31T18:26:56.099Z,1014.10
2019-03-31T18:31:56.133Z,1014.15
2019-03-31T18:36:56.248Z,1014.23
2019-03-31T18:41:56.275Z,1014.25
2019-03-31T18:46:55.098Z,1014.32
2019-03-31T18:51:55.145Z,1014.34
2019-03-31T18:56:55.062Z,1014.35
2019-03-31T19:01:55.248Z,1014.54
2019-03-31T19:11:55.255Z,1014.44
2019-03-31T19:16:55.441Z,1014.54
2019-03-31T19:21:54.093Z,1014.59
2019-03-31T19:26:53.372Z,1014.64
2019-03-31T19:31:52.181Z,1014.64
2019-03-31T19:36:53.328Z,1014.63
2019-03-31T19:41:52.523Z,1014.65
2019-03-31T19:46:51.275Z,1014.70
2019-03-31T19:51:51.460Z,1014.75
2019-03-31T19:56:51.103Z,1014.72
2019-03-31T20:01:50.111Z,1014.77
2019-03-31T20:06:51.221Z,1014.74
2019-03-31T20:11:50.151Z,1014.87
2019-03-31T20:16:51.531Z,1014.81
2019-03-31T20:21:51.475Z,1014.88
2019-03-31T20:26:51.079Z,1014.91
2019-03-31T20:31:50.141Z,1014.93
2019-03-31T20:36:50.232Z,1015.01
2019-03-31T20:41:49.137Z,1014.94
2019-03-31T20:46:49.106Z,1014.99
2019-03-31T20:51:49.092Z,1014.95
2019-03-31T20:56:48.655Z,1014.95
2019-03-31T21:01:48.114Z,1014.94
2019-03-31T21:06:48.240Z,1014.94
2019-03-31T21:11:48.150Z,1014.93
2019-03-31T21:16:48.174Z,1015.01
2019-03-31T21:21:48.117Z,1015.06
2019-03-31T21:26:48.219Z,1015.11
2019-03-31T21:31:49.113Z,1015.18
2019-03-31T21:36:49.311Z,1015.12
2019-03-31T21:41:49.131Z,1015.18
2019-03-31T21:46:48.178Z,1015.23
2019-03-31T21:51:47.544Z,1015.33
2019-03-31T21:56:47.284Z,1015.32
2019-03-31T22:01:47.303Z,1015.33
2019-03-31T22:06:47.162Z,1015.28
2019-03-31T22:11:46.484Z,1015.35
2019-03-31T22:16:46.553Z,1015.26
2019-03-31T22:21:45.268Z,1015.33
2019-03-31T22:26:45.143Z,1015.29
2019-03-31T22:31:46.197Z,1015.34
2019-03-31T22:36:46.215Z,1015.36
2019-03-31T22:41:46.310Z,1015.25
2019-03-31T22:46:54.267Z,1015.24
2019-03-31T22:51:45.324Z,1015.26
2019-03-31T22:56:45.293Z,1015.26
2019-03-31T23:01:44.241Z,1015.25
2019-03-31T23:06:44.141Z,1015.22
2019-03-31T23:11:44.113Z,1015.29
2019-03-31T23:16:44.150Z,1015.23
2019-03-31T23:21:43.210Z,1015.17
2019-03-31T23:26:42.176Z,1015.21
2019-03-31T23:31:42.171Z,1015.21
2019-03-31T23:36:41.433Z,1015.15
2019-03-31T23:41:40.143Z,1015.06
2019-03-31T23:46:40.149Z,1015.09
2019-03-31T23:51:39.528Z,1015.11
2019-03-31T23:56:39.157Z,1015.06
